Etusivu
METAR-TAF:

METAR-TAF

Lentoasemat :

Koror, Babeldaob, Palau

Leveyspiiri: 07-22N, Pituuspiiri: 134-32E, korkeus merenpinnasta: 54 m

Tämänhetkinen sää

Tämä raportti tehtiin 57 minuuttia sitten, kello 14.50 UTC
Tuuli 6 kn lounaasta
Lämpötila 26°C
Kosteus 84%
Ilmanpaine 1009 hPa
Näkyvyys: 22.5 km
Hajanaisia pilviä 1600 ft:n korkeudessa
Pilvistä 30000 ft:n korkeudessa

METAR: PTRO 231450Z 23006KT 14SM SCT016 OVC300 26/23 A2980

Aika: 00:47 (15:47 UTC)

Sääennuste

Tämä raportti tehtiin 4 tuntia ja 12 minuuttia sitten, kello 11.35 UTC
Ennuste voimassa 23. päivästä klo 12 UTC - 24. päivään klo 12 UTC
Tuuli 11 kn lännestä
Näkyvyys: 10 km
Hajanaisia pilviä 1500 ft:n korkeudessa
Hajonneita pilviä 12000 ft:n korkeudessa
sadekuuroja näköpiirissä

TAF: PTRO 231135Z 2312/2412 26011KT P6SM VCSH SCT015 BKN120

Säähavainnot ja -ennusteet yli 4000 lentoasemalta (METAR- ja TAF-raportit).

Käytössä olevat sääasemat on merkitty karttaan keltaisilla ja punaisilla pisteillä.

Aseta hiiri pisteen päälle nähdäksesi sääaseman nimen.

Klikkaa sitten nähdäksesi säähavainnot ja -ennusteet.

Kartan vaihtaminen: klikkaa mustalla rastilla varustettuja vihreitä pisteitä, niin voit zoomata sisään; viivalla varustettua vihreää pistettä, niin voit zoomata ulos tai vihreitä nuolia, niin pääset viereisille kartoille.


METAR-TAF: